Time;durP1;ratioP1;P1;durP2;ratioP2;P2;SDS_P1;SDS_P2;PMS_P1;PMS_P2;Temp;Humidity;BMP_temperature;BMP_pressure;BME280_temperature;BME280_humidity;BME280_pressure;Samples;Min_cycle;Max_cycle;Signal;HPM_P1;HPM_P2
2020/12/05 00:01:54;;;;;;;;;;;;;;;6.24;48.71;92745.56;5012945;28;19920;-73
2020/12/05 00:04:19;;;;;;;;;;;;;;;6.21;49.58;92747.00;4994890;28;20384;-74
2020/12/05 00:06:44;;;;;;;;;;;;;;;6.18;49.12;92749.53;4995998;28;20497;-73
2020/12/05 00:09:10;;;;;;;;;;;;;;;6.18;49.71;92760.84;5013287;28;19920;-76
2020/12/05 00:11:35;;;;;;;;;;;;;;;6.13;49.57;92769.00;4995367;28;19972;-75
2020/12/05 00:14:00;;;;;;;;;;;;;;;6.04;49.36;92770.22;5013355;28;19917;-71
2020/12/05 00:16:26;;;;;;;;;;;;;;;6.03;49.36;92766.81;4995457;28;19984;-77
2020/12/05 00:18:54;;;;;;;;;;;;;;;6.00;50.17;92756.94;4995326;28;19939;-76
2020/12/05 00:21:23;;;;;;;;;;;;;;;5.94;50.24;92732.66;4995285;28;19964;-76
2020/12/05 00:23:49;;;;;;;;;;;;;;;5.92;49.83;92708.47;5012640;28;19921;-75
2020/12/05 00:26:16;;;;;;;;;;;;;;;5.88;50.84;92702.28;4995328;28;19924;-77
2020/12/05 00:28:41;;;;;;;;;;;;;;;5.80;50.40;92719.03;5012876;28;19924;-75
2020/12/05 00:31:06;;;;;;;;;;;;;;;5.77;50.35;92716.28;5012812;28;19918;-74
2020/12/05 00:33:32;;;;;;;;;;;;;;;5.74;51.17;92713.22;5012258;28;19987;-74
2020/12/05 00:35:57;;;;;;;;;;;;;;;5.72;50.52;92717.28;4995209;28;20005;-74
2020/12/05 00:38:22;;;;;;;;;;;;;;;5.66;51.03;92719.38;5012606;28;19928;-74
2020/12/05 00:40:47;;;;;;;;;;;;;;;5.58;50.97;92719.47;5012702;28;19917;-76
2020/12/05 00:43:13;;;;;;;;;;;;;;;5.54;50.96;92716.00;4994878;28;19932;-74
2020/12/05 00:45:38;;;;;;;;;;;;;;;5.55;50.80;92728.84;4994909;28;19918;-73
2020/12/05 00:48:03;;;;;;;;;;;;;;;5.57;51.13;92715.31;5012756;28;19918;-74
2020/12/05 00:50:28;;;;;;;;;;;;;;;5.57;51.14;92707.41;4994893;28;20004;-73
2020/12/05 00:52:53;;;;;;;;;;;;;;;5.58;51.15;92712.38;5012499;28;20020;-75
2020/12/05 00:55:19;;;;;;;;;;;;;;;5.60;51.63;92707.50;4994730;28;19917;-74
2020/12/05 00:57:44;;;;;;;;;;;;;;;5.65;51.24;92704.66;4995270;28;19917;-73
2020/12/05 01:00:11;;;;;;;;;;;;;;;5.69;51.34;92707.41;5012337;28;19917;-74
2020/12/05 01:02:37;;;;;;;;;;;;;;;5.70;51.42;92699.16;5012096;28;19964;-74
2020/12/05 01:05:03;;;;;;;;;;;;;;;5.73;51.01;92702.97;5012375;28;19921;-75
2020/12/05 01:07:28;;;;;;;;;;;;;;;5.69;51.51;92692.34;5012356;28;20342;-75
2020/12/05 01:09:53;;;;;;;;;;;;;;;5.74;51.08;92692.13;4994426;28;19917;-74
2020/12/05 01:12:19;;;;;;;;;;;;;;;5.72;51.39;92696.94;5012160;28;19918;-74
2020/12/05 01:14:45;;;;;;;;;;;;;;;5.71;51.31;92708.59;4995674;28;19918;-75
2020/12/05 01:17:10;;;;;;;;;;;;;;;5.67;51.67;92710.34;5016442;28;19968;-75
2020/12/05 01:19:35;;;;;;;;;;;;;;;5.63;52.05;92713.97;4998533;28;19963;-75
2020/12/05 01:22:01;;;;;;;;;;;;;;;5.59;51.89;92713.13;5016241;28;19913;-75
2020/12/05 01:24:26;;;;;;;;;;;;;;;5.55;51.60;92707.75;5014795;28;19929;-76
2020/12/05 01:26:51;;;;;;;;;;;;;;;5.53;51.60;92709.16;5016237;28;19918;-72
2020/12/05 01:29:16;;;;;;;;;;;;;;;5.54;51.63;92710.72;5015974;28;20359;-72
2020/12/05 01:31:45;;;;;;;;;;;;;;;5.53;51.87;92720.50;4998023;28;19917;-75
2020/12/05 01:34:11;;;;;;;;;;;;;;;5.49;51.77;92735.44;5016053;28;20282;-75
2020/12/05 01:36:36;;;;;;;;;;;;;;;5.25;52.82;92730.16;5014885;28;20024;-75
2020/12/05 01:39:01;;;;;;;;;;;;;;;5.24;52.50;92737.28;5015855;28;20012;-76
2020/12/05 01:41:27;;;;;;;;;;;;;;;5.27;52.68;92730.59;5015789;28;19988;-76
2020/12/05 01:43:52;;;;;;;;;;;;;;;5.09;53.44;92745.84;4998243;28;19917;-73
2020/12/05 01:46:30;;;;;;;;;;;;;;;5.28;52.88;92742.69;5015883;28;19918;-73
2020/12/05 01:48:56;;;;;;;;;;;;;;;5.38;52.84;92771.25;5015736;28;19918;-75
2020/12/05 01:51:21;;;;;;;;;;;;;;;5.42;52.63;92774.75;5015573;28;19918;-75
2020/12/05 01:53:46;;;;;;;;;;;;;;;5.36;53.11;92757.59;4998208;28;19964;-75
2020/12/05 01:56:11;;;;;;;;;;;;;;;5.41;52.77;92746.84;4998218;28;20381;-72
2020/12/05 01:58:37;;;;;;;;;;;;;;;5.46;52.71;92739.47;5015612;28;19918;-73
2020/12/05 02:01:02;;;;;;;;;;;;;;;5.33;52.80;92766.19;5014459;28;20067;-73
2020/12/05 02:03:27;;;;;;;;;;;;;;;5.38;53.27;92758.84;5013634;28;20067;-73
2020/12/05 02:05:55;;;;;;;;;;;;;;;5.40;52.86;92758.50;5015440;28;19933;-76
2020/12/05 02:08:47;;;;;;;;;;;;;;;5.37;53.12;92761.78;5015304;28;19918;-76
2020/12/05 02:11:16;;;;;;;;;;;;;;;5.33;53.16;92756.41;5012282;28;19959;-75
2020/12/05 02:13:44;;;;;;;;;;;;;;;5.29;53.30;92762.66;4997954;28;19917;-73
2020/12/05 02:16:09;;;;;;;;;;;;;;;5.20;53.23;92781.97;4997893;28;19920;-74
2020/12/05 02:18:36;;;;;;;;;;;;;;;5.14;53.74;92804.38;4997699;28;19921;-73
2020/12/05 02:21:03;;;;;;;;;;;;;;;5.05;53.65;92803.69;4997851;28;19928;-74
2020/12/05 02:23:28;;;;;;;;;;;;;;;4.91;54.37;92817.16;4997244;28;19961;-74
2020/12/05 02:25:59;;;;;;;;;;;;;;;3.68;58.97;92814.16;5014646;28;19917;-73
2020/12/05 02:28:25;;;;;;;;;;;;;;;3.75;58.74;92790.78;4996873;28;19917;-74
2020/12/05 02:30:51;;;;;;;;;;;;;;;4.08;57.31;92790.88;4997530;28;19971;-73
2020/12/05 02:33:16;;;;;;;;;;;;;;;3.78;58.71;92805.91;5014337;28;19917;-73
2020/12/05 02:35:42;;;;;;;;;;;;;;;3.64;59.17;92796.41;5015034;28;19919;-73
2020/12/05 02:38:07;;;;;;;;;;;;;;;3.59;59.14;92796.59;5014912;28;20371;-74
2020/12/05 02:40:32;;;;;;;;;;;;;;;3.69;58.75;92813.09;4997260;28;20260;-74
2020/12/05 02:42:58;;;;;;;;;;;;;;;3.85;58.68;92835.91;4997095;28;19917;-73
2020/12/05 02:45:24;;;;;;;;;;;;;;;3.84;58.92;92830.97;5014653;28;19922;-73
2020/12/05 02:47:49;;;;;;;;;;;;;;;3.75;58.99;92838.88;4997344;28;19917;-72
2020/12/05 02:50:14;;;;;;;;;;;;;;;3.58;59.96;92857.34;4996908;28;19928;-74
2020/12/05 02:52:39;;;;;;;;;;;;;;;3.25;61.04;92854.53;5013173;28;20008;-72
2020/12/05 02:55:05;;;;;;;;;;;;;;;3.25;60.73;92857.16;4997016;28;19983;-72
2020/12/05 02:57:30;;;;;;;;;;;;;;;3.19;61.35;92855.78;4997009;28;19917;-74
2020/12/05 02:59:55;;;;;;;;;;;;;;;3.02;61.61;92867.88;5014331;28;19940;-74
2020/12/05 03:02:20;;;;;;;;;;;;;;;2.83;62.62;92880.56;5013602;28;19963;-74
2020/12/05 03:04:46;;;;;;;;;;;;;;;2.81;62.71;92893.22;5013089;28;19925;-74
2020/12/05 03:07:11;;;;;;;;;;;;;;;2.59;63.71;92905.41;5013201;28;19964;-73
2020/12/05 03:09:36;;;;;;;;;;;;;;;2.32;64.57;92903.84;4996881;28;19913;-74
2020/12/05 03:12:03;;;;;;;;;;;;;;;1.80;66.84;92932.56;5012839;28;19940;-73
2020/12/05 03:14:28;;;;;;;;;;;;;;;1.82;67.92;92945.34;4996581;28;20001;-74
2020/12/05 03:16:53;;;;;;;;;;;;;;;1.52;68.79;92979.13;5014256;28;20004;-74
2020/12/05 03:19:19;;;;;;;;;;;;;;;1.24;70.73;92988.97;5013871;28;19940;-73
2020/12/05 03:21:44;;;;;;;;;;;;;;;1.25;70.97;92998.38;5014030;28;19920;-73
2020/12/05 03:24:09;;;;;;;;;;;;;;;1.08;72.54;93002.72;4996235;28;20371;-73
2020/12/05 03:26:34;;;;;;;;;;;;;;;1.30;71.89;92994.88;4996719;28;19926;-74
2020/12/05 03:29:01;;;;;;;;;;;;;;;1.16;72.94;93020.34;4996210;28;19917;-71
2020/12/05 03:34:10;;;;;;;;;;;;;;;1.01;74.46;93053.63;5013777;28;19924;-74
2020/12/05 03:36:35;;;;;;;;;;;;;;;0.81;75.63;93066.38;5013870;28;19921;-71
2020/12/05 03:39:01;;;;;;;;;;;;;;;0.77;76.41;93082.69;5011495;28;19918;-74
2020/12/05 03:41:26;;;;;;;;;;;;;;;0.72;77.01;93098.47;4995068;28;19925;-74
2020/12/05 03:43:51;;;;;;;;;;;;;;;0.71;77.47;93130.16;5012523;28;19922;-71
2020/12/05 03:46:17;;;;;;;;;;;;;;;0.61;78.61;93120.66;4995864;28;19917;-71
2020/12/05 03:48:42;;;;;;;;;;;;;;;0.76;78.06;93109.88;5013346;28;19917;-71
2020/12/05 03:51:07;;;;;;;;;;;;;;;0.71;78.33;93106.59;4995946;28;19922;-71
2020/12/05 03:53:32;;;;;;;;;;;;;;;0.75;78.39;93110.97;5013393;28;19925;-74
2020/12/05 03:55:58;;;;;;;;;;;;;;;0.87;77.96;93128.81;5012231;28;19917;-74
2020/12/05 03:58:23;;;;;;;;;;;;;;;1.02;77.62;93146.84;4995575;28;19921;-73
2020/12/05 04:00:48;;;;;;;;;;;;;;;1.04;77.81;93164.84;5013342;28;19917;-74
2020/12/05 04:03:14;;;;;;;;;;;;;;;1.00;78.03;93180.38;4995141;28;19918;-74
2020/12/05 04:05:39;;;;;;;;;;;;;;;0.94;78.58;93178.91;5013289;28;19922;-72
2020/12/05 04:08:04;;;;;;;;;;;;;;;1.02;78.01;93193.16;5013369;28;19950;-74
2020/12/05 04:10:30;;;;;;;;;;;;;;;1.00;78.51;93209.16;5012986;28;19964;-73
2020/12/05 04:12:55;;;;;;;;;;;;;;;1.06;78.53;93204.59;4995273;28;19925;-72
2020/12/05 04:15:21;;;;;;;;;;;;;;;0.98;78.65;93208.69;5011801;28;19918;-75
2020/12/05 04:17:46;;;;;;;;;;;;;;;1.10;78.48;93221.28;4995566;28;20347;-72
2020/12/05 04:20:11;;;;;;;;;;;;;;;1.07;78.52;93237.56;5012985;28;19918;-72
2020/12/05 04:22:36;;;;;;;;;;;;;;;1.17;78.48;93247.06;5011509;28;19924;-73
2020/12/05 04:25:02;;;;;;;;;;;;;;;1.20;78.22;93236.03;5012894;28;19921;-72
2020/12/05 04:27:28;;;;;;;;;;;;;;;1.13;79.06;93249.50;4995189;28;20290;-71
2020/12/05 04:29:54;;;;;;;;;;;;;;;1.29;78.43;93247.38;5012770;28;20437;-72
2020/12/05 04:32:19;;;;;;;;;;;;;;;1.41;78.34;93257.34;5012253;28;20515;-71
2020/12/05 04:34:44;;;;;;;;;;;;;;;1.45;78.72;93272.19;5012967;28;20371;-72
2020/12/05 04:37:09;;;;;;;;;;;;;;;1.32;79.10;93283.44;5011480;28;20264;-73
2020/12/05 04:39:35;;;;;;;;;;;;;;;1.37;78.75;93285.19;5012488;28;19924;-73
2020/12/05 04:42:00;;;;;;;;;;;;;;;1.47;78.56;93298.88;5012515;28;20008;-73
2020/12/05 04:44:25;;;;;;;;;;;;;;;1.51;78.77;93284.13;5012572;28;19917;-74
2020/12/05 04:46:51;;;;;;;;;;;;;;;1.50;79.00;93294.91;4995019;28;19918;-73
2020/12/05 04:49:16;;;;;;;;;;;;;;;1.68;78.36;93304.50;4994295;28;19948;-72
2020/12/05 04:51:46;;;;;;;;;;;;;;;1.79;78.34;93297.19;5012436;28;19917;-73
2020/12/05 04:54:11;;;;;;;;;;;;;;;1.78;78.46;93298.28;4994878;28;19921;-72
2020/12/05 04:56:38;;;;;;;;;;;;;;;1.74;78.35;93298.09;5012514;28;19935;-73
2020/12/05 04:59:04;;;;;;;;;;;;;;;1.70;78.95;93301.59;5012184;28;20660;-73
2020/12/05 05:01:32;;;;;;;;;;;;;;;1.63;79.52;93301.19;4994482;28;19917;-73
2020/12/05 05:03:57;;;;;;;;;;;;;;;1.76;78.67;93316.16;4994517;28;19918;-73
2020/12/05 05:06:22;;;;;;;;;;;;;;;1.80;79.03;93309.25;5012553;28;20569;-73
2020/12/05 05:08:48;;;;;;;;;;;;;;;1.73;79.68;93329.81;5012162;28;20003;-72
2020/12/05 05:11:14;;;;;;;;;;;;;;;1.70;80.09;93338.28;5012252;28;20379;-71
2020/12/05 05:13:58;;;;;;;;;;;;;;;1.77;79.83;93342.06;4994711;28;19991;-72
2020/12/05 05:16:26;;;;;;;;;;;;;;;2.07;78.23;93348.53;5012360;28;20298;-73
2020/12/05 05:18:52;;;;;;;;;;;;;;;1.80;79.84;93366.94;4994623;28;19918;-72
2020/12/05 05:21:33;;;;;;;;;;;;;;;1.89;79.24;93383.50;5011983;28;20423;-72
2020/12/05 05:24:00;;;;;;;;;;;;;;;2.05;78.94;93392.66;4994104;28;19969;-72
2020/12/05 05:26:26;;;;;;;;;;;;;;;2.21;78.39;93406.22;5012294;28;20367;-73
2020/12/05 05:28:51;;;;;;;;;;;;;;;2.25;78.13;93412.44;5012270;28;19924;-72
2020/12/05 05:33:48;;;;;;;;;;;;;;;2.25;77.67;93399.31;5011923;28;19921;-73
2020/12/05 05:36:23;;;;;;;;;;;;;;;2.45;76.79;93400.72;4994648;28;19961;-73
2020/12/05 05:39:16;;;;;;;;;;;;;;;2.43;77.49;93407.34;5011975;28;19968;-73
2020/12/05 05:41:45;;;;;;;;;;;;;;;2.40;77.09;93403.44;5009268;28;19917;-72
2020/12/05 05:44:11;;;;;;;;;;;;;;;2.31;77.80;93423.59;5012043;28;20371;-72
2020/12/05 05:46:44;;;;;;;;;;;;;;;2.20;78.25;93424.84;5012200;28;19964;-72
2020/12/05 05:49:11;;;;;;;;;;;;;;;2.40;77.37;93418.41;5011792;28;19917;-72
2020/12/05 05:51:37;;;;;;;;;;;;;;;2.67;76.56;93428.88;4994097;28;19917;-73
2020/12/05 05:54:22;;;;;;;;;;;;;;;2.77;75.79;93433.13;4994345;28;19918;-73
2020/12/05 05:56:53;;;;;;;;;;;;;;;3.07;74.77;93461.34;4994781;28;19922;-72
2020/12/05 05:59:20;;;;;;;;;;;;;;;2.68;76.68;93471.66;5011657;28;19924;-72
2020/12/05 06:01:48;;;;;;;;;;;;;;;3.23;74.12;93480.16;5012110;28;19935;-72
2020/12/05 06:04:18;;;;;;;;;;;;;;;3.62;72.70;93474.22;4997692;28;19961;-73
2020/12/05 06:06:44;;;;;;;;;;;;;;;3.79;71.80;93488.56;4998068;28;20405;-73
2020/12/05 06:09:11;;;;;;;;;;;;;;;3.28;73.54;93506.31;5015478;28;20406;-72
2020/12/05 06:11:36;;;;;;;;;;;;;;;3.18;74.65;93516.28;4997590;28;19952;-72
2020/12/05 06:14:02;;;;;;;;;;;;;;;3.60;72.73;93528.97;4997833;28;19957;-73
2020/12/05 06:16:27;;;;;;;;;;;;;;;4.00;71.78;93526.44;4997933;28;20527;-73
2020/12/05 06:18:55;;;;;;;;;;;;;;;4.31;70.74;93501.94;5015261;28;19918;-73
2020/12/05 06:21:21;;;;;;;;;;;;;;;4.24;70.29;93481.31;5015028;28;19972;-72
2020/12/05 06:23:49;;;;;;;;;;;;;;;4.19;70.06;93489.34;5015212;28;19925;-72
2020/12/05 06:26:18;;;;;;;;;;;;;;;4.39;69.64;93501.19;4997669;28;19928;-73
2020/12/05 06:28:44;;;;;;;;;;;;;;;4.30;69.41;93495.91;4997344;28;19922;-73
2020/12/05 06:31:10;;;;;;;;;;;;;;;3.97;70.34;93490.19;4997461;28;19917;-72
2020/12/05 06:33:39;;;;;;;;;;;;;;;4.24;69.77;93473.41;5014403;28;19940;-72
2020/12/05 06:36:23;;;;;;;;;;;;;;;4.36;69.49;93442.03;5014912;28;19921;-75
2020/12/05 06:38:48;;;;;;;;;;;;;;;4.64;68.88;93450.47;4997231;28;19917;-72
2020/12/05 06:41:30;;;;;;;;;;;;;;;4.83;68.43;93484.44;4997114;28;19929;-72
2020/12/05 06:44:08;;;;;;;;;;;;;;;5.01;67.29;93479.16;4997177;28;19922;-73
2020/12/05 06:46:52;;;;;;;;;;;;;;;5.15;67.17;93496.38;5014736;28;20280;-73
2020/12/05 06:49:40;;;;;;;;;;;;;;;4.95;66.53;93544.41;4996824;28;19924;-72
2020/12/05 06:52:24;;;;;;;;;;;;;;;4.34;69.19;93573.16;5014363;28;19989;-73
2020/12/05 06:54:49;;;;;;;;;;;;;;;4.57;68.11;93591.56;4996997;28;19918;-72
2020/12/05 06:57:14;;;;;;;;;;;;;;;4.51;68.47;93600.69;4997070;28;19917;-72
2020/12/05 06:59:39;;;;;;;;;;;;;;;4.33;69.66;93597.19;4996679;28;19918;-73
2020/12/05 07:02:24;;;;;;;;;;;;;;;3.79;70.21;93541.94;4996026;28;20020;-73
2020/12/05 07:04:50;;;;;;;;;;;;;;;3.99;71.02;93609.03;5014116;28;19964;-72
2020/12/05 07:07:30;;;;;;;;;;;;;;;3.91;71.00;93607.91;5014528;28;19917;-73
2020/12/05 07:09:55;;;;;;;;;;;;;;;4.01;71.05;93600.88;5014186;28;19967;-76
2020/12/05 07:12:20;;;;;;;;;;;;;;;4.18;70.26;93606.22;4996092;28;19956;-72
2020/12/05 07:14:46;;;;;;;;;;;;;;;3.92;71.33;93592.91;5012850;28;19925;-72
2020/12/05 07:17:20;;;;;;;;;;;;;;;4.02;70.89;93595.28;5014195;28;19917;-73
2020/12/05 07:19:46;;;;;;;;;;;;;;;3.83;71.05;93590.22;5014043;28;20379;-72
2020/12/05 07:22:11;;;;;;;;;;;;;;;3.71;71.90;93599.72;5013758;28;20016;-73
2020/12/05 07:24:36;;;;;;;;;;;;;;;3.64;72.59;93629.06;5012734;28;19968;-72
2020/12/05 07:27:01;;;;;;;;;;;;;;;3.81;72.08;93617.91;4996421;28;19924;-73
2020/12/05 07:29:27;;;;;;;;;;;;;;;3.69;72.32;93630.81;4996157;28;20367;-74
2020/12/05 07:31:53;;;;;;;;;;;;;;;3.71;71.99;93660.97;5013251;28;19918;-67
2020/12/05 07:34:22;;;;;;;;;;;;;;;3.71;72.73;93666.25;4996092;28;19971;-71
2020/12/05 07:36:47;;;;;;;;;;;;;;;3.62;72.31;93670.63;5013981;28;19926;-73
2020/12/05 07:39:12;;;;;;;;;;;;;;;3.75;72.44;93664.56;5013527;28;19917;-74
2020/12/05 07:41:37;;;;;;;;;;;;;;;3.94;71.35;93655.72;5013747;28;19940;-75
2020/12/05 07:44:03;;;;;;;;;;;;;;;4.08;70.97;93670.41;5014994;28;20363;-77
2020/12/05 07:46:28;;;;;;;;;;;;;;;4.47;70.02;93676.84;4996060;28;20015;-71
2020/12/05 07:48:53;;;;;;;;;;;;;;;4.70;69.36;93678.38;5014353;28;20012;-81
2020/12/05 07:51:19;;;;;;;;;;;;;;;4.79;69.08;93693.44;4995994;28;19928;-68
2020/12/05 07:53:45;;;;;;;;;;;;;;;5.18;68.10;93693.47;5013850;28;19917;-70
2020/12/05 07:56:12;;;;;;;;;;;;;;;5.33;66.84;93697.56;5013581;28;20410;-68
2020/12/05 07:58:48;;;;;;;;;;;;;;;5.14;66.55;93699.66;5013267;28;19917;-76
2020/12/05 08:01:21;;;;;;;;;;;;;;;4.54;68.35;93705.38;4995516;28;19918;-79
2020/12/05 08:03:47;;;;;;;;;;;;;;;4.90;67.80;93710.53;5012998;28;19918;-68
2020/12/05 08:06:20;;;;;;;;;;;;;;;4.61;68.59;93709.16;5013297;28;19918;-68
2020/12/05 08:08:47;;;;;;;;;;;;;;;5.11;67.45;93703.66;4996782;28;20007;-65
2020/12/05 08:11:12;;;;;;;;;;;;;;;5.27;66.50;93714.56;4996095;28;19918;-70
2020/12/05 08:13:38;;;;;;;;;;;;;;;5.57;65.89;93707.69;5013897;28;20594;-76
2020/12/05 08:16:04;;;;;;;;;;;;;;;5.84;65.65;93701.38;5013809;28;19918;-74
2020/12/05 08:18:31;;;;;;;;;;;;;;;5.94;64.59;93708.25;5013449;28;19917;-72
2020/12/05 08:20:57;;;;;;;;;;;;;;;5.58;65.33;93714.53;5013783;28;19941;-76
2020/12/05 08:23:24;;;;;;;;;;;;;;;5.57;64.61;93720.88;4995558;28;19921;-70
2020/12/05 08:25:50;;;;;;;;;;;;;;;5.18;65.93;93722.47;5013873;28;19917;-73
2020/12/05 08:28:18;;;;;;;;;;;;;;;4.72;68.29;93737.88;5013274;28;20008;-77
2020/12/05 08:30:44;;;;;;;;;;;;;;;4.87;67.65;93746.19;5013495;28;19913;-71
2020/12/05 08:33:12;;;;;;;;;;;;;;;4.78;68.30;93737.47;5012919;28;19925;-70
2020/12/05 08:35:37;;;;;;;;;;;;;;;4.65;68.79;93741.69;5013356;28;19913;-74
2020/12/05 08:38:03;;;;;;;;;;;;;;;4.77;68.20;93737.75;4995949;28;19924;-81
2020/12/05 08:40:28;;;;;;;;;;;;;;;4.89;68.12;93756.41;4996565;28;19918;-78
2020/12/05 08:42:53;;;;;;;;;;;;;;;5.34;66.62;93772.16;5013152;28;19918;-74
2020/12/05 08:45:20;;;;;;;;;;;;;;;5.53;65.89;93791.16;5012935;28;19921;-74
2020/12/05 08:47:46;;;;;;;;;;;;;;;5.06;67.09;93797.91;4995506;28;20355;-71
2020/12/05 08:50:25;;;;;;;;;;;;;;;5.60;65.67;93811.81;5013138;28;19964;-73
2020/12/05 08:52:51;;;;;;;;;;;;;;;5.24;66.14;93815.38;5012640;28;19956;-70
2020/12/05 08:55:20;;;;;;;;;;;;;;;5.88;65.36;93799.94;5012825;28;19917;-71
2020/12/05 08:57:51;;;;;;;;;;;;;;;6.22;64.81;93801.91;5013310;28;20005;-73
2020/12/05 09:00:19;;;;;;;;;;;;;;;6.54;62.96;93804.44;4995427;28;20008;-75
2020/12/05 09:02:44;;;;;;;;;;;;;;;6.74;63.72;93806.44;5012513;28;19922;-75
2020/12/05 09:05:09;;;;;;;;;;;;;;;7.05;61.79;93816.84;5012152;28;20059;-73
2020/12/05 09:07:34;;;;;;;;;;;;;;;7.20;61.35;93812.94;5013246;28;20000;-72
2020/12/05 09:09:59;;;;;;;;;;;;;;;7.37;60.36;93820.84;5013023;28;20008;-71
2020/12/05 09:12:32;;;;;;;;;;;;;;;7.40;59.90;93812.25;5013359;28;20464;-77
2020/12/05 09:15:05;;;;;;;;;;;;;;;7.54;59.37;93804.91;5012130;28;20007;-73
2020/12/05 09:17:34;;;;;;;;;;;;;;;7.67;59.90;93811.06;4994558;28;20295;-69
2020/12/05 09:20:08;;;;;;;;;;;;;;;7.76;59.30;93813.69;5011827;28;20295;-74
2020/12/05 09:22:34;;;;;;;;;;;;;;;7.87;58.50;93808.81;4993689;28;20383;-77
2020/12/05 09:24:59;;;;;;;;;;;;;;;7.95;58.25;93798.19;4998962;28;19918;-70
2020/12/05 09:27:34;;;;;;;;;;;;;;;7.90;57.88;93792.31;4998530;28;19918;-72
2020/12/05 09:29:59;;;;;;;;;;;;;;;7.98;57.73;93797.53;4996337;28;19918;-73
2020/12/05 09:32:35;;;;;;;;;;;;;;;7.68;57.41;93809.22;5011593;28;20315;-70
2020/12/05 09:35:00;;;;;;;;;;;;;;;7.65;57.84;93799.25;5012401;28;19949;-75
2020/12/05 09:37:26;;;;;;;;;;;;;;;7.75;58.42;93797.03;5016184;28;19940;-79
2020/12/05 09:39:51;;;;;;;;;;;;;;;7.93;58.18;93789.00;4998601;28;19917;-75
2020/12/05 09:42:21;;;;;;;;;;;;;;;8.10;57.49;93782.84;4998399;28;20270;-76
2020/12/05 09:44:47;;;;;;;;;;;;;;;8.17;57.31;93789.19;4998748;28;19917;-77
2020/12/05 09:47:12;;;;;;;;;;;;;;;8.24;57.34;93794.75;4999036;28;19918;-85
2020/12/05 09:49:37;;;;;;;;;;;;;;;8.25;56.87;93798.97;4998949;28;19917;-71
2020/12/05 09:52:02;;;;;;;;;;;;;;;8.23;57.30;93810.94;5015858;28;19971;-71
2020/12/05 09:54:28;;;;;;;;;;;;;;;8.24;57.18;93801.91;4998269;28;19917;-76
2020/12/05 09:56:53;;;;;;;;;;;;;;;8.15;56.82;93809.91;4998640;28;20011;-69
2020/12/05 09:59:18;;;;;;;;;;;;;;;8.05;56.86;93813.72;4998487;28;19917;-74
2020/12/05 10:01:44;;;;;;;;;;;;;;;7.99;57.65;93814.22;5015492;28;20314;-73
2020/12/05 10:04:09;;;;;;;;;;;;;;;8.03;57.25;93823.06;5015574;28;20059;-84
2020/12/05 10:06:34;;;;;;;;;;;;;;;7.98;57.16;93831.19;4998596;28;19917;-72
2020/12/05 10:08:59;;;;;;;;;;;;;;;7.98;57.78;93836.47;5015288;28;20012;-74
2020/12/05 10:11:25;;;;;;;;;;;;;;;7.97;57.81;93842.88;4997589;28;20290;-74
2020/12/05 10:13:50;;;;;;;;;;;;;;;8.03;57.69;93852.97;4997442;28;19921;-76
2020/12/05 10:16:15;;;;;;;;;;;;;;;8.04;57.67;93851.13;4997660;28;19923;-71
2020/12/05 10:18:40;;;;;;;;;;;;;;;8.07;57.52;93845.16;5015283;28;19921;-78
2020/12/05 10:21:07;;;;;;;;;;;;;;;8.09;57.36;93843.00;4997714;28;20314;-71
2020/12/05 10:23:32;;;;;;;;;;;;;;;8.13;57.60;93841.22;5014409;28;19960;-71
2020/12/05 10:25:57;;;;;;;;;;;;;;;8.19;57.05;93845.28;5014943;28;19949;-72
2020/12/05 10:28:23;;;;;;;;;;;;;;;8.20;57.25;93838.09;5014785;28;19963;-74
2020/12/05 10:30:48;;;;;;;;;;;;;;;8.23;57.18;93837.44;5015080;28;20377;-78
2020/12/05 10:33:13;;;;;;;;;;;;;;;8.24;57.30;93826.56;5014767;28;19921;-74
2020/12/05 10:35:38;;;;;;;;;;;;;;;8.23;56.79;93834.78;4997803;28;19922;-76
2020/12/05 10:38:04;;;;;;;;;;;;;;;8.30;56.71;93835.84;4997457;28;20064;-74
2020/12/05 10:40:29;;;;;;;;;;;;;;;8.26;56.79;93828.88;5014555;28;19917;-81
2020/12/05 10:42:54;;;;;;;;;;;;;;;8.32;56.91;93824.94;5015082;28;20043;-83
2020/12/05 10:45:20;;;;;;;;;;;;;;;8.32;56.76;93827.59;4997365;28;19924;-70
2020/12/05 10:47:45;;;;;;;;;;;;;;;8.25;56.99;93822.78;4996381;28;19922;-75
2020/12/05 10:50:11;;;;;;;;;;;;;;;8.19;56.68;93823.28;5014475;28;19945;-71
2020/12/05 10:52:36;;;;;;;;;;;;;;;8.22;56.97;93831.38;5014443;28;19971;-67
2020/12/05 10:55:01;;;;;;;;;;;;;;;8.26;56.56;93828.88;5014627;28;20000;-76
2020/12/05 10:57:26;;;;;;;;;;;;;;;8.26;56.94;93828.88;4996967;28;20390;-72
2020/12/05 10:59:54;;;;;;;;;;;;;;;8.20;56.99;93816.91;5014336;28;19921;-69
2020/12/05 11:02:19;;;;;;;;;;;;;;;8.04;56.80;93820.09;5014404;28;19921;-73
2020/12/05 11:04:45;;;;;;;;;;;;;;;8.07;57.66;93814.16;5014514;28;19917;-82
2020/12/05 11:07:10;;;;;;;;;;;;;;;8.09;57.37;93821.81;4997168;28;19917;-69
2020/12/05 11:09:35;;;;;;;;;;;;;;;8.10;57.30;93833.16;4996415;28;19918;-75
2020/12/05 11:12:01;;;;;;;;;;;;;;;8.12;57.97;93836.25;5013822;28;19924;-73
2020/12/05 11:14:26;;;;;;;;;;;;;;;8.08;57.98;93838.75;4996455;28;20371;-71
2020/12/05 11:16:51;;;;;;;;;;;;;;;8.12;57.95;93830.97;5014216;28;19918;-70
2020/12/05 11:19:16;;;;;;;;;;;;;;;8.12;58.04;93844.22;5014084;28;19917;-70
2020/12/05 11:21:45;;;;;;;;;;;;;;;8.06;58.27;93835.66;5013862;28;19918;-70
2020/12/05 11:24:10;;;;;;;;;;;;;;;8.05;58.28;93839.41;5013963;28;19929;-76
2020/12/05 11:26:35;;;;;;;;;;;;;;;7.98;57.98;93839.91;5013931;28;19917;-82
2020/12/05 11:29:01;;;;;;;;;;;;;;;7.97;58.63;93841.00;4996681;28;19924;-67
2020/12/05 11:31:26;;;;;;;;;;;;;;;7.99;58.60;93846.00;5014330;28;19925;-68
2020/12/05 11:33:51;;;;;;;;;;;;;;;7.97;59.12;93845.53;5033636;23;19932;-67
2020/12/05 11:36:17;;;;;;;;;;;;;;;7.96;58.64;93838.69;5024270;28;19987;-68
2020/12/05 11:38:42;;;;;;;;;;;;;;;7.92;58.79;93827.94;4995850;28;19922;-66
2020/12/05 11:41:07;;;;;;;;;;;;;;;7.83;59.20;93827.22;5013476;28;20342;-68
2020/12/05 11:43:32;;;;;;;;;;;;;;;7.82;59.60;93830.94;5013453;28;19921;-67
2020/12/05 11:45:57;;;;;;;;;;;;;;;7.86;59.50;93828.44;5013399;28;19925;-67
2020/12/05 11:48:23;;;;;;;;;;;;;;;7.76;59.52;93813.69;4995552;28;19922;-70
2020/12/05 11:50:48;;;;;;;;;;;;;;;7.66;59.71;93820.09;4996197;28;20310;-71
2020/12/05 11:53:13;;;;;;;;;;;;;;;7.70;59.91;93814.97;5013440;28;19918;-70
2020/12/05 11:55:38;;;;;;;;;;;;;;;7.61;60.24;93814.97;4995669;28;20359;-67
2020/12/05 11:58:04;;;;;;;;;;;;;;;7.53;61.04;93805.22;5013313;28;20016;-69
2020/12/05 12:00:29;;;;;;;;;;;;;;;7.28;61.67;93802.34;5012571;28;19918;-67
2020/12/05 12:02:54;;;;;;;;;;;;;;;7.25;62.36;93810.88;5012994;28;19961;-69
2020/12/05 12:05:20;;;;;;;;;;;;;;;7.19;63.02;93801.56;4995498;28;19925;-66
2020/12/05 12:07:45;;;;;;;;;;;;;;;7.17;64.83;93809.06;4995816;28;19917;-77
2020/12/05 12:10:11;;;;;;;;;;;;;;;7.09;66.25;93806.41;5012958;28;20383;-74
2020/12/05 12:12:36;;;;;;;;;;;;;;;7.04;66.86;93804.72;4995379;28;19924;-67
2020/12/05 12:15:02;;;;;;;;;;;;;;;7.00;66.69;93804.56;5013021;28;19933;-66
2020/12/05 12:17:27;;;;;;;;;;;;;;;6.81;66.42;93803.31;5013053;28;19918;-67
2020/12/05 12:19:52;;;;;;;;;;;;;;;6.74;66.62;93807.22;4995107;28;19922;-68
2020/12/05 12:22:17;;;;;;;;;;;;;;;6.79;69.03;93806.28;5012676;28;19917;-68
2020/12/05 12:24:43;;;;;;;;;;;;;;;6.75;67.96;93802.72;5012909;28;19926;-66
2020/12/05 12:27:08;;;;;;;;;;;;;;;6.62;68.20;93787.81;5012714;28;20329;-67
2020/12/05 12:29:33;;;;;;;;;;;;;;;6.59;68.97;93789.19;5012641;28;19921;-67
2020/12/05 12:31:58;;;;;;;;;;;;;;;6.55;69.57;93787.47;4994368;28;19918;-68
2020/12/05 12:34:24;;;;;;;;;;;;;;;6.50;70.72;93785.81;5012486;28;19922;-67
2020/12/05 12:36:50;;;;;;;;;;;;;;;6.50;70.40;93788.44;5012745;28;20402;-70
2020/12/05 12:39:15;;;;;;;;;;;;;;;6.47;69.93;93787.19;5012511;28;19918;-68
2020/12/05 12:41:40;;;;;;;;;;;;;;;6.43;72.86;93780.19;4994775;28;19917;-68
2020/12/05 12:44:06;;;;;;;;;;;;;;;6.44;71.91;93781.72;5012511;28;19963;-69
2020/12/05 12:46:32;;;;;;;;;;;;;;;6.43;71.11;93780.19;5012217;28;20331;-75
2020/12/05 12:48:58;;;;;;;;;;;;;;;6.44;71.94;93776.44;5012679;28;20633;-69
2020/12/05 12:51:23;;;;;;;;;;;;;;;6.50;73.47;93772.59;5012217;28;19921;-68
2020/12/05 12:53:49;;;;;;;;;;;;;;;6.50;72.07;93767.31;5012441;28;20326;-68
2020/12/05 12:56:19;;;;;;;;;;;;;;;6.43;70.81;93766.97;5012377;28;19918;-69
2020/12/05 12:58:49;;;;;;;;;;;;;;;6.35;70.66;93762.50;5012114;28;19990;-69
2020/12/05 13:01:15;;;;;;;;;;;;;;;6.36;71.03;93764.81;5011896;28;19917;-69